createdAt,value
2019-03-31T04:00:54.745Z,10.20
2019-03-31T04:01:54.913Z,11.00
2019-03-31T04:02:55.088Z,11.70
2019-03-31T04:03:55.261Z,9.90
2019-03-31T04:04:55.428Z,10.20
2019-03-31T04:05:55.597Z,11.70
2019-03-31T04:06:55.771Z,12.90
2019-03-31T04:07:55.950Z,14.00
2019-03-31T04:08:56.125Z,13.30
2019-03-31T04:09:56.282Z,13.90
2019-03-31T04:10:56.455Z,13.50
2019-03-31T04:11:56.623Z,14.20
2019-03-31T04:12:56.798Z,13.40
2019-03-31T04:13:56.985Z,13.80
2019-03-31T04:14:57.133Z,13.30
2019-03-31T04:15:57.311Z,11.60
2019-03-31T04:16:57.473Z,13.80
2019-03-31T04:17:57.642Z,12.80
2019-03-31T04:18:57.815Z,11.50
2019-03-31T04:19:57.987Z,13.30
2019-03-31T04:20:58.166Z,14.30
2019-03-31T04:21:58.335Z,11.50
2019-03-31T04:22:58.501Z,11.90
2019-03-31T04:23:58.672Z,13.30
2019-03-31T04:24:58.840Z,14.60
2019-03-31T04:25:59.013Z,12.70
2019-03-31T04:26:59.187Z,13.50
2019-03-31T04:27:59.359Z,13.80
2019-03-31T04:28:59.547Z,14.20
2019-03-31T04:29:59.694Z,16.70
2019-03-31T04:30:59.865Z,13.20
2019-03-31T04:32:00.036Z,14.90
2019-03-31T04:33:00.204Z,13.40
2019-03-31T04:34:00.377Z,16.20
2019-03-31T04:35:00.643Z,13.40
2019-03-31T04:36:00.749Z,14.80
2019-03-31T04:37:00.897Z,14.10
2019-03-31T04:38:01.067Z,15.30
2019-03-31T04:39:01.268Z,14.70
2019-03-31T04:40:01.418Z,13.90
2019-03-31T04:41:01.571Z,14.50
2019-03-31T04:42:01.746Z,15.50
2019-03-31T04:43:01.920Z,16.20
2019-03-31T04:44:02.111Z,17.50
2019-03-31T04:45:02.263Z,15.30
2019-03-31T04:46:02.437Z,13.80
2019-03-31T04:47:02.605Z,14.60
2019-03-31T04:48:02.774Z,15.70
2019-03-31T04:49:02.942Z,17.10
2019-03-31T04:50:03.111Z,15.70
2019-03-31T04:51:03.284Z,15.50
2019-03-31T04:52:03.454Z,15.40
2019-03-31T04:53:03.622Z,16.20
2019-03-31T04:54:03.791Z,16.80
2019-03-31T04:55:03.976Z,15.10
2019-03-31T04:56:04.144Z,16.10
2019-03-31T04:57:04.718Z,15.00
2019-03-31T04:58:04.488Z,16.30
2019-03-31T04:59:04.659Z,15.60
2019-03-31T05:00:04.832Z,16.70
2019-03-31T05:01:05.001Z,14.00
2019-03-31T05:02:05.172Z,14.10
2019-03-31T05:03:05.341Z,13.80
2019-03-31T05:04:05.590Z,14.90
2019-03-31T05:05:05.685Z,13.20
2019-03-31T05:06:05.858Z,13.70
2019-03-31T05:07:06.028Z,14.50
2019-03-31T05:08:06.197Z,13.60
2019-03-31T05:09:06.369Z,15.50
2019-03-31T05:10:06.539Z,16.20
2019-03-31T05:11:06.704Z,15.20
2019-03-31T05:12:06.878Z,14.50
2019-03-31T05:13:07.045Z,15.20
2019-03-31T05:14:07.221Z,14.30
2019-03-31T05:15:07.394Z,13.10
2019-03-31T05:16:07.565Z,14.70
2019-03-31T05:17:07.735Z,14.00
2019-03-31T05:18:07.906Z,14.80
2019-03-31T05:19:08.076Z,13.90
2019-03-31T05:20:08.245Z,12.50
2019-03-31T05:21:08.413Z,13.80
2019-03-31T05:22:08.583Z,13.90
2019-03-31T05:23:08.752Z,15.90
2019-03-31T05:24:08.929Z,16.90
2019-03-31T05:25:09.094Z,15.00
2019-03-31T05:26:09.265Z,14.60
2019-03-31T05:27:09.439Z,12.90
2019-03-31T05:28:09.612Z,14.10
2019-03-31T05:29:09.785Z,15.00
2019-03-31T05:30:09.954Z,15.00
2019-03-31T05:31:10.121Z,13.40
2019-03-31T05:32:10.298Z,13.20
2019-03-31T05:33:10.464Z,15.50
2019-03-31T05:34:18.911Z,15.10
2019-03-31T05:35:10.803Z,13.90
2019-03-31T05:36:10.975Z,13.30
2019-03-31T05:37:11.145Z,13.50
2019-03-31T05:38:11.315Z,14.20
2019-03-31T05:39:11.487Z,15.00
2019-03-31T05:40:11.656Z,13.30
2019-03-31T05:41:11.825Z,16.80
2019-03-31T05:42:11.994Z,13.80
2019-03-31T05:43:12.164Z,12.40
2019-03-31T05:44:12.334Z,14.80
2019-03-31T05:45:12.507Z,14.10
2019-03-31T05:46:12.675Z,14.70
2019-03-31T05:47:12.845Z,14.40
2019-03-31T05:48:13.015Z,16.00
2019-03-31T05:49:13.189Z,13.30
2019-03-31T05:50:13.375Z,13.90
2019-03-31T05:51:13.551Z,15.20
2019-03-31T05:52:13.720Z,15.50
2019-03-31T05:53:13.884Z,16.20
2019-03-31T05:54:14.058Z,14.40
2019-03-31T05:55:14.225Z,15.90
2019-03-31T05:56:14.393Z,14.50
2019-03-31T05:57:14.564Z,12.70
2019-03-31T05:58:14.733Z,12.40
2019-03-31T05:59:14.903Z,13.10
2019-03-31T06:00:15.073Z,12.40
2019-03-31T06:01:15.246Z,12.60
2019-03-31T06:02:15.412Z,13.10
2019-03-31T06:03:15.586Z,13.60
2019-03-31T06:04:15.755Z,15.00
2019-03-31T06:05:15.929Z,14.80
2019-03-31T06:06:16.098Z,13.80
2019-03-31T06:07:16.269Z,16.50
2019-03-31T06:08:16.439Z,13.50
2019-03-31T06:09:16.610Z,12.70
2019-03-31T06:10:16.783Z,14.80
2019-03-31T06:11:16.962Z,12.10
2019-03-31T06:12:17.130Z,12.10
2019-03-31T06:13:17.311Z,13.90
2019-03-31T06:14:17.476Z,14.60
2019-03-31T06:15:17.651Z,16.10
2019-03-31T06:16:17.819Z,14.10
2019-03-31T06:17:17.990Z,13.30
2019-03-31T06:18:18.160Z,13.60
2019-03-31T06:19:18.327Z,16.40
2019-03-31T06:20:18.502Z,13.70
2019-03-31T06:21:18.670Z,13.00
2019-03-31T06:22:18.843Z,14.40
2019-03-31T06:23:19.011Z,13.70
2019-03-31T06:24:19.182Z,12.40
2019-03-31T06:25:19.353Z,11.70
2019-03-31T06:26:19.519Z,14.50
2019-03-31T06:27:19.691Z,13.00
2019-03-31T06:28:19.866Z,14.20
2019-03-31T06:29:20.040Z,14.20
2019-03-31T06:30:20.205Z,13.70
2019-03-31T06:31:20.389Z,13.90
2019-03-31T06:32:20.559Z,14.40
2019-03-31T06:33:20.728Z,13.50
2019-03-31T06:34:20.900Z,15.00
2019-03-31T06:35:21.070Z,12.50
2019-03-31T06:36:21.240Z,16.80
2019-03-31T06:37:21.414Z,12.90
2019-03-31T06:38:21.585Z,15.60
2019-03-31T06:39:21.755Z,14.80
2019-03-31T06:40:21.923Z,13.20
2019-03-31T06:41:22.093Z,13.20
2019-03-31T06:42:22.268Z,13.60
2019-03-31T06:43:22.432Z,13.70
2019-03-31T06:44:22.602Z,12.30
2019-03-31T06:45:22.775Z,15.10
2019-03-31T06:46:22.946Z,13.80
2019-03-31T06:47:23.113Z,14.90
2019-03-31T06:48:23.288Z,14.20
2019-03-31T06:49:23.454Z,14.00
2019-03-31T06:50:23.624Z,13.60
2019-03-31T06:51:23.795Z,12.80
2019-03-31T06:52:23.965Z,13.70
2019-03-31T06:53:24.137Z,13.10
2019-03-31T06:54:24.311Z,13.50
2019-03-31T06:55:24.483Z,16.40
2019-03-31T06:56:24.657Z,13.50
2019-03-31T06:57:24.826Z,12.80
2019-03-31T06:58:24.999Z,13.20
2019-03-31T06:59:25.169Z,13.60
2019-03-31T07:00:25.340Z,16.10
2019-03-31T07:01:25.531Z,13.30
2019-03-31T07:02:25.684Z,14.20
2019-03-31T07:03:25.856Z,14.70
2019-03-31T07:04:26.028Z,13.50
2019-03-31T07:05:26.201Z,13.80
2019-03-31T07:06:26.374Z,13.20
2019-03-31T07:07:26.542Z,14.70
2019-03-31T07:08:26.710Z,15.20
2019-03-31T07:09:26.911Z,13.80
2019-03-31T07:10:27.061Z,13.80
2019-03-31T07:11:27.230Z,12.40
2019-03-31T07:12:27.402Z,15.00
2019-03-31T07:13:27.574Z,12.80
2019-03-31T07:14:27.746Z,13.50
2019-03-31T07:15:27.918Z,15.20
2019-03-31T07:16:28.086Z,13.70
2019-03-31T07:17:28.275Z,13.90
2019-03-31T07:18:28.429Z,13.10
2019-03-31T07:19:28.601Z,12.60
2019-03-31T07:20:28.777Z,12.30
2019-03-31T07:21:28.943Z,13.80
2019-03-31T07:22:29.115Z,12.90
2019-03-31T07:23:29.314Z,13.80
2019-03-31T07:24:29.537Z,13.90
2019-03-31T07:25:29.685Z,16.70
2019-03-31T07:26:29.862Z,13.20
2019-03-31T07:27:30.035Z,11.70
2019-03-31T07:28:30.210Z,13.90
2019-03-31T07:29:30.390Z,14.70
2019-03-31T07:30:30.566Z,13.30
2019-03-31T07:31:30.739Z,18.60
2019-03-31T07:32:30.909Z,12.50
2019-03-31T07:33:31.076Z,15.00
2019-03-31T07:34:31.257Z,15.20
2019-03-31T07:35:31.427Z,13.10
2019-03-31T07:36:31.596Z,13.70
2019-03-31T07:37:31.768Z,13.60
2019-03-31T07:38:38.934Z,12.60
2019-03-31T07:39:32.426Z,13.40
2019-03-31T07:40:32.295Z,13.60
2019-03-31T07:41:32.642Z,14.20
2019-03-31T07:42:32.628Z,14.00
2019-03-31T07:43:32.798Z,15.10
2019-03-31T07:44:32.974Z,15.20
2019-03-31T07:45:33.182Z,15.60
2019-03-31T07:46:33.307Z,14.00
2019-03-31T07:47:33.479Z,12.90
2019-03-31T07:48:33.681Z,13.10
2019-03-31T07:49:33.823Z,13.50
2019-03-31T07:50:34.000Z,13.90
2019-03-31T07:51:37.447Z,12.40
2019-03-31T07:52:34.343Z,13.80
2019-03-31T07:53:34.514Z,12.00
2019-03-31T07:54:34.683Z,12.50
2019-03-31T07:55:34.855Z,13.10
2019-03-31T07:56:35.028Z,12.20
2019-03-31T07:57:35.197Z,13.10
2019-03-31T07:58:35.371Z,12.80
2019-03-31T07:59:35.545Z,12.80
2019-03-31T08:00:35.715Z,15.50
2019-03-31T08:01:35.889Z,12.70
2019-03-31T08:02:36.060Z,11.30
2019-03-31T08:03:36.233Z,13.20
2019-03-31T08:04:36.408Z,12.70
2019-03-31T08:05:37.772Z,12.30
2019-03-31T08:06:36.750Z,13.30
2019-03-31T08:07:36.921Z,14.00
2019-03-31T08:08:37.103Z,11.80
2019-03-31T08:09:37.271Z,11.70
2019-03-31T08:10:37.442Z,14.00
2019-03-31T08:11:37.614Z,12.80
2019-03-31T08:12:37.788Z,11.70
2019-03-31T08:13:37.970Z,14.40
2019-03-31T08:14:38.146Z,12.30
2019-03-31T08:15:38.320Z,12.00
2019-03-31T08:16:38.494Z,13.50
2019-03-31T08:17:38.667Z,12.70
2019-03-31T08:18:38.841Z,11.70
2019-03-31T08:19:39.013Z,12.00
2019-03-31T08:20:39.193Z,12.70
2019-03-31T08:21:39.364Z,13.20
2019-03-31T08:22:39.535Z,12.10
2019-03-31T08:23:39.709Z,13.10
2019-03-31T08:24:39.886Z,12.50
2019-03-31T08:25:40.072Z,12.70
2019-03-31T08:26:40.230Z,13.00
2019-03-31T08:27:40.403Z,14.80
2019-03-31T08:28:40.582Z,13.30
2019-03-31T08:29:40.754Z,13.50
2019-03-31T08:30:40.927Z,14.10
2019-03-31T08:31:41.099Z,12.70
2019-03-31T08:32:41.274Z,15.10
2019-03-31T08:33:41.446Z,12.80
2019-03-31T08:34:41.620Z,12.80
2019-03-31T08:35:47.633Z,12.60
2019-03-31T08:36:41.990Z,13.50
2019-03-31T08:37:42.139Z,13.50
2019-03-31T08:38:42.314Z,14.20
2019-03-31T08:39:42.489Z,15.20
2019-03-31T08:40:42.663Z,13.60
2019-03-31T08:41:42.836Z,16.90
2019-03-31T08:42:43.011Z,15.00
2019-03-31T08:43:43.186Z,13.50
2019-03-31T08:44:43.360Z,15.10
2019-03-31T08:45:43.539Z,13.40
2019-03-31T08:46:43.719Z,14.20
2019-03-31T08:47:43.890Z,16.10
2019-03-31T08:48:44.063Z,14.70
2019-03-31T08:49:44.239Z,13.90
2019-03-31T08:50:44.414Z,14.90
2019-03-31T08:51:44.587Z,15.90
2019-03-31T08:52:44.764Z,14.90
2019-03-31T08:53:44.939Z,16.40
2019-03-31T08:54:45.115Z,14.80
2019-03-31T08:55:45.289Z,16.50
2019-03-31T08:56:45.463Z,16.50
2019-03-31T08:57:45.638Z,17.30
2019-03-31T08:58:45.814Z,16.70
2019-03-31T08:59:45.999Z,15.80
2019-03-31T09:00:46.172Z,16.40
2019-03-31T09:01:46.338Z,19.00
2019-03-31T09:02:46.515Z,18.40
2019-03-31T09:03:46.690Z,17.20
2019-03-31T09:04:46.886Z,21.00
2019-03-31T09:06:00.632Z,20.30
2019-03-31T09:06:47.240Z,22.90
2019-03-31T09:07:47.413Z,23.90
2019-03-31T09:08:47.586Z,28.20
2019-03-31T09:09:47.767Z,25.40
2019-03-31T09:10:47.932Z,26.20
2019-03-31T09:11:48.106Z,27.90
2019-03-31T09:12:48.777Z,29.70
2019-03-31T09:13:48.460Z,29.30
2019-03-31T09:14:48.638Z,30.00
2019-03-31T09:15:48.813Z,32.10
2019-03-31T09:16:48.986Z,30.00
2019-03-31T09:17:49.162Z,29.80
2019-03-31T09:18:49.339Z,29.20
2019-03-31T09:19:49.516Z,33.10
2019-03-31T09:20:49.694Z,29.80
2019-03-31T09:21:49.876Z,31.30
2019-03-31T09:22:50.042Z,31.60
2019-03-31T09:23:50.217Z,31.30
2019-03-31T09:24:50.394Z,30.10
2019-03-31T09:25:50.565Z,34.20
2019-03-31T09:26:50.763Z,33.60
2019-03-31T09:27:50.935Z,35.00
2019-03-31T09:28:51.110Z,33.80
2019-03-31T09:29:51.288Z,33.70
2019-03-31T09:30:51.463Z,34.70
2019-03-31T09:31:51.628Z,34.60
2019-03-31T09:34:23.381Z,34.90
2019-03-31T09:35:23.555Z,34.30
2019-03-31T09:36:23.731Z,35.90
2019-03-31T09:37:23.906Z,32.20
2019-03-31T09:38:24.080Z,34.20
2019-03-31T09:39:24.258Z,34.00
2019-03-31T09:40:24.431Z,35.70
2019-03-31T09:41:24.608Z,35.10
2019-03-31T09:42:24.781Z,37.40
2019-03-31T09:43:24.959Z,35.70
2019-03-31T09:44:25.133Z,38.60
2019-03-31T09:45:25.306Z,38.10
2019-03-31T09:46:25.482Z,40.50
2019-03-31T09:47:25.662Z,38.00
2019-03-31T09:48:25.823Z,37.20
2019-03-31T09:49:26.001Z,40.50
2019-03-31T09:50:26.176Z,38.60
2019-03-31T09:51:26.355Z,37.80
2019-03-31T09:52:26.533Z,37.40
2019-03-31T09:53:26.698Z,40.40
2019-03-31T09:54:26.882Z,40.80
2019-03-31T09:55:27.059Z,40.20
2019-03-31T09:56:27.228Z,40.70
2019-03-31T09:57:27.406Z,39.10
2019-03-31T09:58:27.581Z,42.50
2019-03-31T09:59:27.757Z,40.50
2019-03-31T10:00:27.930Z,40.50
2019-03-31T10:01:28.112Z,45.40
2019-03-31T10:02:28.332Z,45.10
2019-03-31T10:03:28.463Z,41.30
2019-03-31T10:04:28.674Z,45.60
2019-03-31T10:05:28.818Z,41.70
2019-03-31T10:06:30.486Z,44.60
2019-03-31T10:07:29.173Z,47.90
2019-03-31T10:08:29.350Z,44.00
2019-03-31T10:09:29.524Z,46.60
2019-03-31T10:10:29.707Z,46.30
2019-03-31T10:11:29.895Z,45.70
2019-03-31T10:12:30.058Z,46.40
2019-03-31T10:13:30.290Z,45.40
2019-03-31T10:14:30.415Z,45.70
2019-03-31T10:15:30.613Z,47.10
2019-03-31T10:16:30.772Z,44.10
2019-03-31T10:17:30.953Z,50.30
2019-03-31T10:18:31.127Z,45.60
2019-03-31T10:19:31.307Z,47.20
2019-03-31T10:20:31.916Z,47.50
2019-03-31T10:21:31.653Z,47.90
2019-03-31T10:22:31.826Z,44.10
2019-03-31T10:23:32.005Z,47.10
2019-03-31T10:24:32.181Z,47.70
2019-03-31T10:25:32.358Z,44.20
2019-03-31T10:26:32.627Z,48.00
2019-03-31T10:27:32.712Z,47.30
2019-03-31T10:28:32.887Z,48.50
2019-03-31T10:29:33.063Z,44.60
2019-03-31T10:30:33.238Z,50.60
2019-03-31T10:31:33.420Z,48.80
2019-03-31T10:32:33.595Z,47.40
2019-03-31T10:33:33.773Z,49.00
2019-03-31T10:34:33.965Z,48.40
2019-03-31T10:35:34.140Z,50.40
2019-03-31T10:36:44.308Z,50.30
2019-03-31T10:37:34.584Z,49.20
2019-03-31T10:38:34.639Z,49.10
2019-03-31T10:39:34.815Z,55.60
2019-03-31T10:40:34.995Z,54.10
2019-03-31T10:41:35.178Z,51.60
2019-03-31T10:42:35.352Z,55.10
2019-03-31T10:43:35.544Z,52.60
2019-03-31T10:44:35.688Z,55.00
2019-03-31T10:45:35.865Z,52.80
2019-03-31T10:46:36.039Z,53.90
2019-03-31T10:47:36.216Z,51.60
2019-03-31T10:48:36.384Z,55.60
2019-03-31T10:49:36.565Z,52.70
2019-03-31T10:50:36.731Z,53.80
2019-03-31T10:51:36.947Z,53.80
2019-03-31T10:52:37.147Z,53.20
2019-03-31T10:53:37.317Z,51.90
2019-03-31T10:54:37.492Z,55.40
2019-03-31T10:55:37.673Z,54.90
2019-03-31T10:56:37.845Z,54.20
2019-03-31T10:57:38.023Z,54.40
2019-03-31T10:58:38.216Z,52.60
2019-03-31T10:59:38.403Z,51.70
2019-03-31T11:00:38.579Z,51.00
2019-03-31T11:01:38.754Z,54.00
2019-03-31T11:02:38.933Z,50.20
2019-03-31T11:03:39.104Z,51.30
2019-03-31T11:04:39.280Z,50.10
2019-03-31T11:05:39.469Z,48.80
2019-03-31T11:06:39.637Z,52.10
2019-03-31T11:07:39.817Z,49.60
2019-03-31T11:08:40.013Z,52.30
2019-03-31T11:09:40.192Z,48.50
2019-03-31T11:10:40.379Z,49.20
2019-03-31T11:11:40.562Z,50.00
2019-03-31T11:12:40.727Z,47.10
2019-03-31T11:13:40.908Z,48.40
2019-03-31T11:14:41.079Z,47.60
2019-03-31T11:15:41.256Z,47.40
2019-03-31T11:16:41.430Z,47.10
2019-03-31T11:17:41.609Z,45.20
2019-03-31T11:18:41.785Z,44.10
2019-03-31T11:19:41.962Z,45.90
2019-03-31T11:20:42.132Z,45.50
2019-03-31T11:21:42.319Z,45.60
2019-03-31T11:22:42.500Z,44.90
2019-03-31T11:23:42.685Z,44.10
2019-03-31T11:24:42.864Z,43.70
2019-03-31T11:25:43.034Z,44.90
2019-03-31T11:26:43.225Z,44.20
2019-03-31T11:27:43.968Z,44.00
2019-03-31T11:28:43.585Z,45.70
2019-03-31T11:29:43.760Z,44.60
2019-03-31T11:30:43.938Z,45.20
2019-03-31T11:31:44.120Z,46.90
2019-03-31T11:32:44.296Z,45.60
2019-03-31T11:33:44.475Z,46.30
2019-03-31T11:34:44.658Z,45.20
2019-03-31T11:35:44.832Z,44.40
2019-03-31T11:36:45.010Z,42.90
2019-03-31T11:37:45.235Z,43.00
2019-03-31T11:38:45.356Z,43.50
2019-03-31T11:39:45.523Z,43.00
2019-03-31T11:40:45.698Z,41.40
2019-03-31T11:41:45.883Z,44.50
2019-03-31T11:42:46.053Z,45.90
2019-03-31T11:43:46.230Z,44.90
2019-03-31T11:44:46.405Z,46.00
2019-03-31T11:45:46.587Z,44.70
2019-03-31T11:46:46.765Z,47.60
2019-03-31T11:47:46.946Z,44.90
2019-03-31T11:48:47.118Z,44.80
2019-03-31T11:49:47.296Z,46.80
2019-03-31T11:50:47.469Z,47.20
2019-03-31T11:51:47.665Z,43.50
2019-03-31T11:52:47.838Z,42.80
2019-03-31T11:53:48.017Z,46.20
2019-03-31T11:54:48.194Z,43.10
2019-03-31T11:55:48.362Z,44.00
2019-03-31T11:56:48.537Z,44.40
2019-03-31T11:57:48.713Z,44.80
2019-03-31T11:58:48.892Z,44.40
2019-03-31T11:59:49.824Z,42.60
2019-03-31T12:00:49.253Z,46.80
2019-03-31T12:01:49.431Z,45.20
2019-03-31T12:02:49.661Z,42.90
2019-03-31T12:03:49.841Z,44.70
2019-03-31T12:04:50.018Z,45.70
2019-03-31T12:05:50.240Z,43.20
2019-03-31T12:06:50.443Z,44.50
2019-03-31T12:07:50.583Z,42.80
2019-03-31T12:08:50.759Z,43.20
2019-03-31T12:09:50.936Z,43.40
2019-03-31T12:10:51.114Z,43.70
2019-03-31T12:11:51.292Z,43.40
2019-03-31T12:12:51.470Z,43.90
2019-03-31T12:13:51.650Z,43.50
2019-03-31T12:15:00.433Z,43.40
2019-03-31T12:15:52.005Z,43.50
2019-03-31T12:16:52.183Z,43.20
2019-03-31T12:17:52.358Z,40.60
2019-03-31T12:18:52.540Z,39.50
2019-03-31T12:19:52.715Z,42.00
2019-03-31T12:20:52.898Z,41.30
2019-03-31T12:21:53.066Z,41.50
2019-03-31T12:22:53.255Z,41.60
2019-03-31T12:23:53.408Z,41.10
2019-03-31T12:24:53.587Z,38.70
2019-03-31T12:25:53.784Z,41.00
2019-03-31T12:26:53.967Z,39.30
2019-03-31T12:27:54.144Z,40.10
2019-03-31T12:28:54.323Z,39.10
2019-03-31T12:29:54.498Z,38.90
2019-03-31T12:30:54.686Z,36.90
2019-03-31T12:31:54.862Z,38.30
2019-03-31T12:32:55.043Z,38.00
2019-03-31T12:33:55.219Z,39.50
2019-03-31T12:34:55.412Z,39.60
2019-03-31T12:35:55.596Z,38.80
2019-03-31T12:36:55.762Z,39.40
2019-03-31T12:37:55.946Z,38.80
2019-03-31T12:38:56.138Z,38.40
2019-03-31T12:39:56.317Z,38.80
2019-03-31T12:40:56.504Z,39.20
2019-03-31T12:41:56.671Z,37.80
2019-03-31T12:42:56.851Z,38.90
2019-03-31T12:43:57.025Z,38.90
2019-03-31T12:44:57.201Z,39.90
2019-03-31T12:45:57.381Z,40.20
2019-03-31T12:46:57.627Z,40.40
2019-03-31T12:48:00.877Z,39.30
2019-03-31T12:48:58.014Z,38.90
2019-03-31T12:51:29.530Z,35.70
2019-03-31T12:52:29.712Z,37.40
2019-03-31T12:53:29.893Z,36.50
2019-03-31T12:54:30.063Z,35.10
2019-03-31T12:55:30.243Z,35.30
2019-03-31T12:56:30.419Z,34.30
2019-03-31T12:57:30.592Z,35.50
2019-03-31T12:58:30.773Z,32.60
2019-03-31T12:59:30.955Z,33.20
2019-03-31T13:00:31.131Z,33.10
2019-03-31T13:01:31.314Z,33.10
2019-03-31T13:02:31.502Z,32.70
2019-03-31T13:03:31.674Z,33.10
2019-03-31T13:04:31.847Z,33.80
2019-03-31T13:05:32.024Z,33.60
2019-03-31T13:06:32.206Z,33.10
2019-03-31T13:07:32.395Z,32.80
2019-03-31T13:08:32.574Z,32.90
2019-03-31T13:09:32.753Z,32.10
2019-03-31T13:10:32.933Z,33.80
2019-03-31T13:11:33.114Z,33.60
2019-03-31T13:12:35.031Z,33.90
2019-03-31T13:13:33.475Z,34.50
2019-03-31T13:14:33.752Z,33.10
2019-03-31T13:15:33.853Z,32.10
2019-03-31T13:16:34.032Z,33.80
2019-03-31T13:17:34.207Z,33.70
2019-03-31T13:18:34.387Z,34.20
2019-03-31T13:19:34.598Z,32.80
2019-03-31T13:20:34.786Z,33.10
2019-03-31T13:21:34.954Z,31.80
2019-03-31T13:22:35.131Z,31.60
2019-03-31T13:23:35.313Z,31.80
2019-03-31T13:24:35.489Z,32.30
2019-03-31T13:25:35.670Z,31.30
2019-03-31T13:26:35.846Z,31.50
2019-03-31T13:27:36.024Z,31.50
2019-03-31T13:28:36.205Z,30.10
2019-03-31T13:29:38.345Z,29.10
2019-03-31T13:30:36.553Z,28.30
2019-03-31T13:31:36.723Z,29.40
2019-03-31T13:32:36.911Z,27.60
2019-03-31T13:33:37.077Z,27.00
2019-03-31T13:34:37.257Z,25.90
2019-03-31T13:35:37.429Z,27.30
2019-03-31T13:36:37.603Z,26.20
2019-03-31T13:37:37.788Z,26.90
2019-03-31T13:38:37.958Z,26.20
2019-03-31T13:39:38.137Z,26.90
2019-03-31T13:40:38.316Z,27.00
2019-03-31T13:41:38.494Z,26.40
2019-03-31T13:42:38.684Z,25.50
2019-03-31T13:43:38.865Z,27.30
2019-03-31T13:44:39.045Z,26.80
2019-03-31T13:45:39.224Z,26.10
2019-03-31T13:46:39.406Z,26.00
2019-03-31T13:47:39.582Z,25.00
2019-03-31T13:48:39.758Z,26.10
2019-03-31T13:49:39.944Z,26.60
2019-03-31T13:50:40.116Z,27.10
2019-03-31T13:51:40.332Z,26.70
2019-03-31T13:52:40.467Z,25.70
2019-03-31T13:53:40.649Z,27.50
2019-03-31T13:54:40.826Z,25.50
2019-03-31T13:55:41.007Z,25.70
2019-03-31T13:56:41.601Z,25.60
2019-03-31T13:57:42.473Z,25.70
2019-03-31T13:58:42.006Z,26.70
2019-03-31T13:59:41.716Z,26.70
2019-03-31T14:00:41.936Z,25.40
2019-03-31T14:01:42.076Z,25.40
2019-03-31T14:02:42.253Z,24.60
2019-03-31T14:03:42.434Z,24.00
2019-03-31T14:04:51.336Z,23.40
2019-03-31T14:05:42.790Z,24.30
2019-03-31T14:06:42.975Z,23.90
2019-03-31T14:07:43.172Z,22.70
2019-03-31T14:08:43.351Z,23.50
2019-03-31T14:09:43.527Z,24.20
2019-03-31T14:10:43.713Z,24.10
2019-03-31T14:11:43.888Z,23.30
2019-03-31T14:12:44.069Z,23.70
2019-03-31T14:13:44.246Z,23.50
2019-03-31T14:14:44.424Z,23.90
2019-03-31T14:15:44.601Z,23.30
2019-03-31T14:16:44.781Z,22.30
2019-03-31T14:17:44.989Z,23.40
2019-03-31T14:18:45.166Z,22.10
2019-03-31T14:19:45.338Z,23.00
2019-03-31T14:20:45.514Z,23.60
2019-03-31T14:21:45.694Z,22.70
2019-03-31T14:22:45.870Z,22.70
2019-03-31T14:23:46.047Z,22.40
2019-03-31T14:24:46.224Z,22.40
2019-03-31T14:25:46.402Z,21.50
2019-03-31T14:26:47.909Z,22.10
2019-03-31T14:27:46.755Z,20.40
2019-03-31T14:28:46.932Z,19.80
2019-03-31T14:29:47.111Z,20.40
2019-03-31T14:30:47.289Z,22.30
2019-03-31T14:31:47.470Z,19.80
2019-03-31T14:32:47.662Z,18.60
2019-03-31T14:33:47.813Z,19.10
2019-03-31T14:34:47.988Z,18.80
2019-03-31T14:35:48.173Z,18.00
2019-03-31T14:36:48.336Z,18.20
2019-03-31T14:37:48.510Z,18.50
2019-03-31T14:38:48.686Z,18.60
2019-03-31T14:39:48.862Z,19.50
2019-03-31T14:40:49.039Z,18.60
2019-03-31T14:41:49.212Z,18.80
2019-03-31T14:42:49.384Z,20.50
2019-03-31T14:43:49.553Z,19.10
2019-03-31T14:44:49.737Z,20.50
2019-03-31T14:45:49.908Z,20.00
2019-03-31T14:46:50.083Z,19.30
2019-03-31T14:47:50.258Z,20.50
2019-03-31T14:48:50.433Z,18.40
2019-03-31T14:49:50.617Z,19.00
2019-03-31T14:50:50.783Z,21.60
2019-03-31T14:51:50.959Z,19.00
2019-03-31T14:52:51.138Z,21.10
2019-03-31T14:53:51.312Z,17.50
2019-03-31T14:54:51.494Z,18.20
2019-03-31T14:55:51.658Z,21.10
2019-03-31T14:56:51.835Z,18.70
2019-03-31T14:57:52.021Z,19.50
2019-03-31T14:58:52.198Z,19.60
2019-03-31T14:59:52.394Z,18.80
2019-03-31T15:00:52.549Z,20.00
2019-03-31T15:01:52.724Z,19.00
2019-03-31T15:02:52.898Z,17.80
2019-03-31T15:03:53.074Z,19.60
2019-03-31T15:04:53.251Z,18.70
2019-03-31T15:05:53.425Z,18.90
2019-03-31T15:06:53.595Z,17.20
2019-03-31T15:07:53.780Z,17.00
2019-03-31T15:08:54.814Z,17.90
2019-03-31T15:09:54.123Z,19.30
2019-03-31T15:10:54.297Z,17.10
2019-03-31T15:11:54.485Z,18.00
2019-03-31T15:12:54.663Z,18.20
2019-03-31T15:13:54.833Z,17.60
2019-03-31T15:14:55.008Z,18.60
2019-03-31T15:15:55.214Z,17.80
2019-03-31T15:16:55.392Z,19.40
2019-03-31T15:17:55.599Z,17.20
2019-03-31T15:18:55.745Z,19.50
2019-03-31T15:19:55.921Z,19.40
2019-03-31T15:20:56.097Z,18.00
2019-03-31T15:21:56.271Z,19.30
2019-03-31T15:22:56.448Z,18.60
2019-03-31T15:23:56.623Z,18.00
2019-03-31T15:24:56.812Z,18.30
2019-03-31T15:25:56.968Z,21.50
2019-03-31T15:26:57.240Z,17.80
2019-03-31T15:27:57.320Z,17.90
2019-03-31T15:28:57.498Z,20.20
2019-03-31T15:29:57.673Z,19.80
2019-03-31T15:30:57.852Z,18.00
2019-03-31T15:31:58.027Z,19.50
2019-03-31T15:32:58.223Z,19.40
2019-03-31T15:33:58.400Z,19.50
2019-03-31T15:34:58.572Z,18.30
2019-03-31T15:35:58.747Z,17.90
2019-03-31T15:36:58.926Z,21.30
2019-03-31T15:37:59.115Z,19.50
2019-03-31T15:39:08.686Z,18.60
2019-03-31T15:39:59.453Z,22.50
2019-03-31T15:40:59.632Z,25.60
2019-03-31T15:41:59.808Z,26.10
2019-03-31T15:42:59.980Z,27.70
2019-03-31T15:44:00.171Z,28.90
2019-03-31T15:45:00.418Z,30.80
2019-03-31T15:46:00.528Z,32.00
2019-03-31T15:47:00.704Z,25.50
2019-03-31T15:48:00.861Z,24.10
2019-03-31T15:49:01.033Z,21.90
2019-03-31T15:50:01.209Z,20.60
2019-03-31T15:51:01.382Z,19.60
2019-03-31T15:52:01.572Z,18.60
2019-03-31T15:53:01.755Z,18.00
2019-03-31T15:54:01.982Z,15.80
2019-03-31T15:55:02.056Z,22.20
2019-03-31T15:56:02.228Z,17.00
2019-03-31T15:57:02.406Z,18.10
2019-03-31T15:58:05.177Z,18.70
2019-03-31T15:59:02.750Z,19.70
2019-03-31T16:00:02.927Z,18.40
2019-03-31T16:01:03.100Z,16.30
2019-03-31T16:02:03.270Z,17.50
2019-03-31T16:03:03.445Z,19.20
2019-03-31T16:04:03.614Z,18.20
2019-03-31T16:05:03.790Z,18.60
2019-03-31T16:06:03.960Z,18.00
2019-03-31T16:07:04.138Z,18.60
2019-03-31T16:08:04.311Z,18.30
2019-03-31T16:09:04.491Z,18.50
2019-03-31T16:10:04.664Z,18.10
2019-03-31T16:11:05.073Z,19.00
2019-03-31T16:12:05.044Z,16.10
2019-03-31T16:13:05.220Z,17.40
2019-03-31T16:14:05.396Z,16.30
2019-03-31T16:15:05.575Z,21.00
2019-03-31T16:16:05.752Z,18.60
2019-03-31T16:17:05.930Z,21.80
2019-03-31T16:18:06.115Z,22.10
2019-03-31T16:19:06.289Z,20.20
2019-03-31T16:20:06.461Z,21.60
2019-03-31T16:21:06.636Z,27.60
2019-03-31T16:22:06.816Z,24.20
2019-03-31T16:23:06.987Z,24.20
2019-03-31T16:24:07.163Z,24.90
2019-03-31T16:25:07.377Z,23.10
2019-03-31T16:26:07.515Z,22.80
2019-03-31T16:27:07.686Z,20.00
2019-03-31T16:28:07.852Z,19.70
2019-03-31T16:29:08.028Z,20.70
2019-03-31T16:30:08.199Z,18.40
2019-03-31T16:31:08.373Z,17.70
2019-03-31T16:32:08.547Z,19.30
2019-03-31T16:33:08.723Z,19.20
2019-03-31T16:34:08.904Z,20.70
2019-03-31T16:35:09.076Z,18.40
2019-03-31T16:36:09.254Z,17.50
2019-03-31T16:37:09.419Z,18.50
2019-03-31T16:38:09.588Z,16.60
2019-03-31T16:39:09.765Z,16.40
2019-03-31T16:40:10.031Z,22.30
2019-03-31T16:41:10.116Z,17.80
2019-03-31T16:42:10.291Z,16.10
2019-03-31T16:43:10.464Z,16.70
2019-03-31T16:44:10.640Z,16.70
2019-03-31T16:45:10.819Z,17.00
2019-03-31T16:46:10.987Z,17.50
2019-03-31T16:47:11.164Z,15.80
2019-03-31T16:48:11.338Z,16.00
2019-03-31T16:49:11.512Z,14.50
2019-03-31T16:50:11.688Z,16.80
2019-03-31T16:51:11.863Z,15.10
2019-03-31T16:52:12.037Z,18.20
2019-03-31T16:53:12.212Z,16.50
2019-03-31T16:54:12.389Z,16.00
2019-03-31T16:55:12.567Z,17.50
2019-03-31T16:56:12.738Z,13.50
2019-03-31T16:57:12.916Z,16.50
2019-03-31T16:58:13.085Z,15.70